Tiempo atmosférico en la estación meteorológica de Almudébar, Huesca (390 m.)



Fecha
DESCASC
Temp. máxima en grados centígrados (hora)
DESCASC
Temp. mínima en grados centígrados (hora)
DESCASC
Temp. media en grados centígrados
DESCASC
Racha de viento máxima en m/sg (hora)
DESCASC
Velocidad máxima media en intervalos de 10 minutos(hora)
DESCASC
Precipitaciones diarias en mm
DESCASC
Precipitaciones de 00:00 a 06:00 en mm
DESCASC
Precipitaciones de 06:00 a 12:00 en mm
DESCASC
Precipitaciones de 12:00 a 18:00 en mm
DESCASC
Precipitaciones de 18:00 a 24:00 en mm
DESCASC

Gráficas

Temp. máximas Temp. mínimas Temp. medias Precipitaciones Rachas de viento máximas Velocidades máximas media en intervalos de 10 minutos

Datos horarios

Fecha y hora oficial Temperatura (ºC) Velocidad del viento (km/h) Dirección del viento Racha (km/h) Dirección de racha Precipitación (mm) Presión (hPa) Tendencia (hPa) Humedad (%)
2020-01-23 23:00:00 5.1 3 Nordeste 7 Este 0 -- -- 96
2020-01-23 22:00:00 4.5 4 Sudeste 8 Este 0 -- -- 96
2020-01-23 21:00:00 4.5 6 Este 17 Este 0 -- -- 93
2020-01-23 20:00:00 4.8 9 Nordeste 14 Nordeste 0 -- -- 94
2020-01-23 19:00:00 5.4 4 Este 13 Este 0 -- -- 94
2020-01-23 18:00:00 6.8 12 Este 20 Este 0 -- -- 93
2020-01-23 17:00:00 7.1 17 Este 26 Este 0 -- -- 91
2020-01-23 16:00:00 6.9 12 Este 18 Este 0 -- -- 92
2020-01-23 15:00:00 6.6 8 Este 15 Este 0 -- -- 96
2020-01-23 14:00:00 6.2 6 Este 9 Este 0.4 -- -- 98
2020-01-23 13:00:00 5.8 3 Este 5 Este 2.6 -- -- 98
2020-01-23 12:00:00 5.6 3 Este 4 Este 2.8 -- -- 98
2020-01-23 11:00:00 5.6 0 Calma 8 Oeste 2.6 -- -- 98
2020-01-23 10:00:00 5.3 5 Oeste 13 Sudoeste 1 -- -- 98
2020-01-23 09:00:00 4.9 5 Sudoeste 15 Sudoeste 1 -- -- 98
2020-01-23 08:00:00 4.5 13 Sudoeste 17 Sudoeste 0.2 -- -- 98
2020-01-23 07:00:00 4.5 4 Noroeste 13 Noroeste 2 -- -- 98
2020-01-23 06:00:00 4.5 6 Noroeste 9 Oeste 1.2 -- -- 98
2020-01-23 05:00:00 4.5 3 Noroeste 7 Oeste 0.6 -- -- 98
2020-01-23 04:00:00 4.7 4 Norte 10 Norte 0.6 -- -- 97
2020-01-23 03:00:00 4.6 3 Norte 7 Sudeste 0 -- -- 97
2020-01-23 02:00:00 4.7 3 Sudeste 15 Sudeste 0 -- -- 97
2020-01-23 01:00:00 4.9 12 Sudeste 17 Sudeste 0 -- -- 96
2020-01-23 00:00:00 5.5 9 Este 15 Este 0.8 -- -- 96
2020-01-22 23:00:00 5.8 9 Este 12 Este 1 -- -- 96
2020-01-22 22:00:00 6.1 5 Este 11 Nordeste 1 -- -- 96
2020-01-22 21:00:00 6.3 4 Este 6 Este 0.2 -- -- 95
2020-01-22 20:00:00 6.7 0 Calma 8 Este 0.6 -- -- 93
2020-01-22 19:00:00 6.9 4 Este 9 Este 0 -- -- 94
2020-01-22 18:00:00 7.3 4 Sudeste 14 Noroeste 0 -- -- 94
2020-01-22 17:00:00 7.5 7 Norte 11 Norte 0.2 -- -- 93
2020-01-22 16:00:00 7.8 5 Oeste 16 Oeste 0 -- -- 89
2020-01-22 15:00:00 8.8 10 Noroeste 15 Noroeste 0 -- -- 86
2020-01-22 14:00:00 8.6 6 Oeste 12 Noroeste 0 -- -- 87
2020-01-22 13:00:00 7.4 8 Oeste 12 Oeste 0 -- -- 91
2020-01-22 12:00:00 6.3 9 Noroeste -- -- -- -- -- 94
2020-01-22 11:00:00 4.9 8 Noroeste 11 Noroeste 0 -- -- 96
2020-01-22 10:00:00 4 4 Noroeste 16 Noroeste 0 -- -- 97
2020-01-22 09:00:00 3 5 Noroeste 12 Noroeste 0 -- -- 98
2020-01-22 08:00:00 2.7 4 Oeste 12 Noroeste 0 -- -- 96
2020-01-22 07:00:00 3.8 7 Noroeste 12 Noroeste 0 -- -- 95
2020-01-22 06:00:00 4.5 7 Noroeste 13 Noroeste 0 -- -- 95
2020-01-22 05:00:00 4.5 5 Este 10 Sudeste 0 -- -- 94
2020-01-22 04:00:00 5.5 7 Sudeste 24 Este 0 -- -- 91
2020-01-22 03:00:00 6.6 16 Este 34 Nordeste 0 -- -- 88
2020-01-22 02:00:00 7.1 20 Nordeste 45 Este 2 -- -- 91
2020-01-22 01:00:00 6.8 34 Este 57 Este 5.6 -- -- 90
2020-01-22 00:00:00 4.1 5 Norte 14 Noroeste 3.8 -- -- 97
2020-01-21 23:00:00 3.7 9 Oeste 18 Noroeste 0 -- -- 93
2020-01-21 22:00:00 4.2 8 Noroeste 17 Norte 0 -- -- 93
2020-01-21 21:00:00 4.3 9 Noroeste 20 Noroeste 0 -- -- 93
2020-01-21 20:00:00 4.5 3 Oeste 17 Noroeste 0 -- -- 94
2020-01-21 19:00:00 4.7 10 Noroeste 20 Noroeste 0 -- -- 93
2020-01-21 18:00:00 5 12 Noroeste 21 Noroeste 0 -- -- 94
2020-01-21 17:00:00 5.3 10 Noroeste 21 Noroeste 0 -- -- 95
2020-01-21 16:00:00 4.8 10 Noroeste 19 Noroeste 0 -- -- 97
2020-01-21 15:00:00 4.1 17 Noroeste 23 Noroeste 1.4 -- -- 97
2020-01-21 14:00:00 4 11 Noroeste 21 Noroeste 1.6 -- -- 97
2020-01-21 13:00:00 3.4 11 Noroeste 22 Noroeste 2.8 -- -- 97
2020-01-21 12:00:00 3.1 10 Noroeste 26 Norte 2 -- -- 96
2020-01-21 11:00:00 2.5 12 Noroeste 23 Noroeste 1.4 -- -- 95
2020-01-21 10:00:00 2.2 13 Noroeste 23 Oeste 1 -- -- 93
2020-01-21 09:00:00 1.9 9 Noroeste 18 Noroeste 0 -- -- 90
2020-01-21 08:00:00 1.6 6 Oeste 19 Noroeste 0 -- -- 90
2020-01-21 07:00:00 1.4 9 Noroeste 21 Oeste 0.2 -- -- 90
2020-01-21 06:00:00 1.6 12 Noroeste 26 Noroeste 0.2 -- -- 87
2020-01-21 05:00:00 1.8 9 Oeste 19 Oeste 0 -- -- 84
2020-01-21 04:00:00 1.6 10 Oeste 20 Oeste 0 -- -- 81
2020-01-21 03:00:00 1.3 10 Oeste 18 Oeste 0 -- -- 83
2020-01-21 02:00:00 1.2 7 Oeste 30 Oeste 0 -- -- 84
2020-01-21 01:00:00 1.3 19 Noroeste 31 Noroeste 0 -- -- 83
2020-01-21 00:00:00 1.6 13 Oeste 32 Noroeste 0 -- -- 81
2020-01-20 23:00:00 1.6 9 Oeste 20 Oeste 0 -- -- 82
2020-01-20 22:00:00 1.7 9 Oeste 18 Oeste 0 -- -- 79
2020-01-20 21:00:00 1.7 5 Oeste 17 Sudoeste 0 -- -- 77
2020-01-20 20:00:00 2.5 8 Oeste 24 Oeste 0 -- -- 74
2020-01-20 19:00:00 3.4 8 Oeste 23 Oeste 0 -- -- 72
2020-01-20 18:00:00 3.9 10 Oeste 25 Oeste 0 -- -- 70
2020-01-20 17:00:00 4.7 12 Oeste 27 Oeste 0 -- -- 67
2020-01-20 16:00:00 5.6 14 Oeste 30 Oeste 0 -- -- 64
2020-01-20 15:00:00 6.1 14 Oeste 31 Oeste 0 -- -- 63
2020-01-20 14:00:00 5.6 21 Oeste 35 Oeste 0 -- -- 63
2020-01-20 13:00:00 3.6 21 Oeste 32 Oeste 0 -- -- 69
2020-01-20 12:00:00 3.1 19 Noroeste 29 Oeste 0 -- -- 73
2020-01-20 11:00:00 1.4 16 Noroeste 25 Noroeste 0 -- -- 78
2020-01-20 10:00:00 0.6 10 Oeste 18 Oeste 0 -- -- 79
2020-01-20 09:00:00 -0.2 8 Oeste 15 Noroeste 0 -- -- 81
2020-01-20 08:00:00 -0.6 6 Oeste 14 Noroeste 0 -- -- 82
2020-01-20 07:00:00 -1.9 4 Noroeste 7 Noroeste 0 -- -- 87
2020-01-20 06:00:00 -2.4 4 Noroeste 12 Noroeste 0 -- -- 82
2020-01-20 05:00:00 -1.4 5 Noroeste 12 Oeste 0 -- -- 80
2020-01-20 04:00:00 -1.5 2 Oeste 8 Oeste 0 -- -- 80
2020-01-20 03:00:00 -0.5 5 Oeste 14 Oeste 0 -- -- 78
2020-01-20 02:00:00 -1.2 3 Oeste 8 Oeste 0 -- -- 81
2020-01-20 01:00:00 -1.1 3 Oeste 8 Oeste 0 -- -- 80
2020-01-20 00:00:00 -1.1 2 Oeste 8 Oeste 0 -- -- 77
2020-01-19 23:00:00 -0.7 3 Sudoeste 11 Sudoeste 0 -- -- 77
2020-01-19 22:00:00 0.1 0 Calma 5 Oeste 0 -- -- 74
2020-01-19 21:00:00 0.9 0 Calma 5 Sudoeste 0 -- -- 74
2020-01-19 20:00:00 2.7 3 Oeste 10 Oeste 0 -- -- 67
2020-01-19 19:00:00 5 5 Noroeste 15 Nordeste 0 -- -- 54
2020-01-19 18:00:00 8.2 10 Norte 16 Norte 0 -- -- 42
2020-01-19 17:00:00 8.9 6 Noroeste 22 Oeste 0 -- -- 71
2020-01-19 16:00:00 10.2 11 Oeste 22 Oeste 0 -- -- 63
2020-01-19 15:00:00 9.5 6 Oeste 13 Oeste 0 -- -- 75
2020-01-19 14:00:00 8.4 8 Sudoeste 14 Oeste 0 -- -- 85
2020-01-19 13:00:00 7.3 10 Oeste 19 Noroeste 0 -- -- 85
2020-01-19 12:00:00 6.8 10 Oeste 17 Oeste 0 -- -- 89
2020-01-19 11:00:00 7 4 Oeste 12 Noroeste 0 -- -- 92
2020-01-19 10:00:00 5.8 10 Noroeste 20 Noroeste 0 -- -- 97
2020-01-19 09:00:00 4.9 8 Noroeste 13 Noroeste 0 -- -- 98
2020-01-19 08:00:00 4.8 3 Oeste 9 Noroeste 0.2 -- -- 98
2020-01-19 07:00:00 4.7 7 Noroeste 12 Noroeste 0.4 -- -- 97
2020-01-19 06:00:00 4.9 6 Oeste 13 Oeste 0 -- -- 96
2020-01-19 05:00:00 5.4 5 Oeste 14 Oeste 0.4 -- -- 96
2020-01-19 04:00:00 5.4 6 Oeste 14 Oeste 0 -- -- 97
2020-01-19 03:00:00 5.7 8 Noroeste 13 Noroeste 0.2 -- -- 97
2020-01-19 02:00:00 5.5 6 Noroeste 10 Norte 1 -- -- 97
2020-01-19 01:00:00 5.6 0 Calma 17 Este 1.6 -- -- 95
2020-01-19 00:00:00 5.7 10 Este 13 Este 2.8 -- -- 94
2020-01-18 23:00:00 6.4 13 Este 24 Este 0.2 -- -- 88
2020-01-18 22:00:00 6.4 12 Este 23 Este 0 -- -- 88
2020-01-18 21:00:00 6.1 8 Este 18 Este 0 -- -- 90
2020-01-18 20:00:00 6.5 14 Este 19 Este 0.4 -- -- 85
2020-01-18 19:00:00 7.3 9 Nordeste 16 Este 0 -- -- 82
2020-01-18 18:00:00 7.8 9 Este 19 Sudeste 0 -- -- 77
2020-01-18 17:00:00 8.3 14 Sudeste 26 Sudeste 0 -- -- 73
2020-01-18 16:00:00 9.5 18 Sudeste 26 Sudeste 0 -- -- 67
2020-01-18 15:00:00 10.5 19 Este 28 Este 0 -- -- 61
2020-01-18 14:00:00 9.5 17 Este 24 Sudeste 0 -- -- 66
2020-01-18 13:00:00 8.9 17 Este 26 Este 0 -- -- 65
2020-01-18 12:00:00 6.7 12 Este 19 Este 0 -- -- 77
2020-01-18 11:00:00 4.9 11 Este 16 Este 0 -- -- 88
2020-01-18 10:00:00 3.1 4 Este 14 Sudeste 0 -- -- 93
2020-01-18 09:00:00 2.1 8 Este 12 Este 0 -- -- 94
2020-01-18 08:00:00 2.4 4 Nordeste 8 Noroeste 0 -- -- 91
2020-01-18 07:00:00 2.6 5 Noroeste 9 Sudoeste 0 -- -- 90
2020-01-18 06:00:00 2.6 5 Oeste 10 Oeste 0 -- -- 89
2020-01-18 05:00:00 2.5 6 Sudoeste 10 Sudoeste 0 -- -- 90
2020-01-18 04:00:00 2.6 2 Noroeste 14 Sudoeste 0 -- -- 88
2020-01-18 03:00:00 1.3 3 Oeste 10 Noroeste 0 -- -- 90
2020-01-18 02:00:00 1.8 3 Oeste 16 Oeste 0 -- -- 89
2020-01-18 01:00:00 2.7 10 Oeste 18 Oeste 0 -- -- 88
2020-01-18 00:00:00 2.1 8 Noroeste 10 Noroeste 0 -- -- 87
2020-01-17 23:00:00 3.2 3 Oeste 20 Oeste 0 -- -- 83
2020-01-17 22:00:00 4.5 6 Oeste 17 Sudoeste 0 -- -- 78
2020-01-17 21:00:00 4.9 10 Oeste 21 Sudoeste 0 -- -- 78
2020-01-17 20:00:00 6.4 8 Oeste 19 Noroeste 0 -- -- 70
2020-01-17 19:00:00 7.2 8 Noroeste 15 Oeste 0 -- -- 68
2020-01-17 18:00:00 8.3 4 Noroeste 28 Noroeste 0 -- -- 68
2020-01-17 17:00:00 10.6 26 Noroeste 35 Noroeste 0 -- -- 57
2020-01-17 16:00:00 11.7 19 Noroeste 36 Oeste 0 -- -- 59
2020-01-17 15:00:00 10.5 25 Noroeste 39 Noroeste 0 -- -- 66
2020-01-17 14:00:00 10.7 14 Oeste 39 Oeste 0 -- -- 77
2020-01-17 13:00:00 12 12 Oeste 24 Oeste 0 -- -- 73
2020-01-17 12:00:00 10 8 Sudoeste 13 Sudoeste 0 -- -- 80
2020-01-17 11:00:00 8.2 6 Sudoeste 11 Sudoeste 0 -- -- 93
2020-01-17 10:00:00 3.7 0 Calma 5 Norte 0 -- -- 98
2020-01-17 09:00:00 2.8 3 Noroeste 4 Noroeste 0 -- -- 97
2020-01-17 08:00:00 3.7 2 Este 10 Este 0 -- -- 94
2020-01-17 07:00:00 5.2 6 Este 10 Este 0 -- -- 95
2020-01-17 06:00:00 5.1 6 Sudeste 14 Este 0 -- -- 94
2020-01-17 05:00:00 5.7 10 Este 14 Este 0 -- -- 93
2020-01-17 04:00:00 5.7 8 Nordeste 13 Nordeste 0.4 -- -- 92
2020-01-17 03:00:00 5.9 5 Nordeste 16 Sudeste 0 -- -- 90
2020-01-17 02:00:00 5.5 12 Este 17 Este 0 -- -- 91
2020-01-17 01:00:00 5.1 13 Este 17 Este 0 -- -- 91
2020-01-17 00:00:00 5.1 9 Este 18 Este 0 -- -- 91
2020-01-16 23:00:00 5.3 10 Este 20 Este 0 -- -- 91
2020-01-16 22:00:00 4.9 6 Este 16 Este 0 -- -- 91
2020-01-16 21:00:00 5 8 Este 15 Este 0 -- -- 90
2020-01-16 20:00:00 6.9 9 Nordeste 14 Nordeste 0 -- -- 86
2020-01-16 19:00:00 8 6 Este 15 Este 0 -- -- 82
2020-01-16 18:00:00 10.1 10 Este 17 Este 0 -- -- 76
2020-01-16 17:00:00 11.5 10 Este 20 Este 0 -- -- 71
2020-01-16 16:00:00 12.8 13 Este 18 Sudeste 0 -- -- 67
2020-01-16 15:00:00 12.6 11 Sudeste 20 Este 0 -- -- 65
2020-01-16 14:00:00 10.7 14 Este 20 Este 0 -- -- 69
2020-01-16 13:00:00 9 15 Este 21 Este 0 -- -- 74
2020-01-16 12:00:00 7.6 17 Este 21 Este 0 -- -- 79
2020-01-16 11:00:00 5.8 11 Este 15 Este 0 -- -- 88
2020-01-16 10:00:00 2.4 4 Este 18 Este 0 -- -- 98
2020-01-16 09:00:00 1.2 13 Este 19 Este 0 -- -- 98
2020-01-16 08:00:00 -0.9 6 Nordeste 12 Nordeste 0 -- -- 100
2020-01-16 07:00:00 -1.8 8 Este 16 Nordeste 0 -- -- 97
2020-01-16 06:00:00 0.5 13 Nordeste 16 Nordeste 0 -- -- 98
2020-01-16 05:00:00 0.3 8 Este 13 Nordeste 0 -- -- 97
2020-01-16 04:00:00 0.2 7 Este 13 Este 0 -- -- 98
2020-01-16 03:00:00 0.7 9 Este 16 Nordeste 0 -- -- 96
2020-01-16 02:00:00 0.6 12 Nordeste 17 Este 0 -- -- 97
2020-01-16 01:00:00 0.4 3 Nordeste 8 Este 0 -- -- 96
2020-01-16 00:00:00 0.5 6 Este 11 Nordeste 0 -- -- 96
2020-01-15 23:00:00 0.4 0 Calma 9 Nordeste 0 -- -- 94
2020-01-15 22:00:00 1.3 2 Nordeste 8 Nordeste 0 -- -- 94
2020-01-15 21:00:00 1.7 3 Este 8 Nordeste 0 -- -- 92
2020-01-15 20:00:00 3 4 Nordeste 7 Este 0 -- -- 91
2020-01-15 19:00:00 4.7 5 Nordeste 12 Nordeste 0 -- -- 87
2020-01-15 18:00:00 6.1 8 Este 13 Sudeste 0 -- -- 84
2020-01-15 17:00:00 7.8 6 Este 14 Sudeste 0 -- -- 79
2020-01-15 16:00:00 8.5 9 Sudeste 14 Sudeste 0 -- -- 77
2020-01-15 15:00:00 7.4 6 Este 14 Sudeste 0 -- -- 78
2020-01-15 14:00:00 5.2 8 Sudeste 19 Este 0 -- -- 82
2020-01-15 13:00:00 4.5 13 Sudeste 18 Sudeste 0 -- -- 88
2020-01-15 12:00:00 3.1 7 Nordeste 16 Este 0 -- -- 91
2020-01-15 11:00:00 1.1 10 Este 14 Este 0.2 -- -- 96
2020-01-15 10:00:00 -0.9 5 Nordeste 15 Este 0 -- -- 98
2020-01-15 09:00:00 -3.5 5 Este 10 Sudeste 0 -- -- 97
2020-01-15 08:00:00 -3.4 4 Sudeste 12 Nordeste 0 -- -- 96
2020-01-15 07:00:00 -2.8 3 Este 11 Este 0 -- -- 97
2020-01-15 06:00:00 -2.6 6 Este 11 Este 0 -- -- 98
2020-01-15 05:00:00 -3.3 3 Este 9 Nordeste 0 -- -- 97
2020-01-15 04:00:00 -3 0 Calma 12 Este 0 -- -- 97
2020-01-15 03:00:00 -2.5 0 Calma 4 Este 0 -- -- 98
2020-01-15 02:00:00 -2.5 5 Nordeste 6 Nordeste 0 -- -- 99
2020-01-15 01:00:00 -2.5 4 Este 7 Este 0 -- -- 99
2020-01-15 00:00:00 -3.3 0 Calma 4 Este 0 -- -- 98
2020-01-14 23:00:00 -3.1 0 Calma 4 Este 0 -- -- 98
2020-01-14 22:00:00 -2.7 2 Nordeste 4 Este 0 -- -- 98
2020-01-14 21:00:00 -2.4 0 Calma 4 Este 0 -- -- 98
2020-01-14 20:00:00 -1.5 4 Este 7 Este 0 -- -- 98
2020-01-14 19:00:00 -0.8 4 Este 12 Este 0 -- -- 98
2020-01-14 18:00:00 0.1 7 Este 13 Este 0 -- -- 97
2020-01-14 17:00:00 2.4 11 Este 18 Este 0 -- -- 93
2020-01-14 16:00:00 3.2 14 Sudeste 18 Este 0 -- -- 93
2020-01-14 15:00:00 2.5 11 Sudeste 20 Sudeste 0 -- -- 99
2020-01-14 14:00:00 1.8 14 Sudeste 20 Sudeste 0 -- -- 100
2020-01-14 13:00:00 0.9 14 Sudeste 18 Sudeste 0 -- -- 100
2020-01-14 12:00:00 -0.1 0 Calma 4 Sudeste 0 -- -- 100
2020-01-14 11:00:00 -1.4 0 Calma -- -- 0.2 -- -- 100
2020-01-14 10:00:00 -3.2 0 Calma -- -- 0 -- -- 100
2020-01-14 09:00:00 -4.5 0 Calma -- -- 0 -- -- 98
2020-01-14 08:00:00 -5 0 Calma -- -- 0 -- -- 98
2020-01-14 07:00:00 -5.3 0 Calma -- -- 0 -- -- 97
2020-01-14 06:00:00 -5.3 0 Calma -- -- 0 -- -- 97
2020-01-14 05:00:00 -5 0 Calma -- -- 0 -- -- 97
2020-01-14 04:00:00 -4.4 0 Calma -- -- 0 -- -- 97
2020-01-14 03:00:00 -3.1 0 Calma -- -- 0 -- -- 99
2020-01-14 02:00:00 -2.9 0 Calma -- -- 0 -- -- 99
2020-01-14 01:00:00 -2.2 0 Calma -- -- 0 -- -- 99
2020-01-14 00:00:00 -1.8 0 Calma -- -- 0 -- -- 99
2020-01-13 23:00:00 -1.6 0 Calma -- -- 0 -- -- 99
2020-01-13 22:00:00 -1 0 Calma -- -- 0 -- -- 99
2020-01-13 21:00:00 -0.7 0 Calma 8 Este 0 -- -- 99
2020-01-13 20:00:00 -0.9 5 Este 13 Este 0 -- -- 98
2020-01-13 19:00:00 -0.3 7 Este 11 Este 0 -- -- 97
2020-01-13 18:00:00 1.3 5 Nordeste 10 Este 0 -- -- 95
2020-01-13 17:00:00 2.8 5 Este 11 Sudeste 0 -- -- 94
2020-01-13 16:00:00 3.1 5 Sudeste 14 Este 0 -- -- 97
2020-01-13 15:00:00 2.4 6 Este 13 Este 0 -- -- 100
2020-01-13 14:00:00 1.7 8 Sudeste 12 Sudeste 0 -- -- 100
2020-01-13 13:00:00 0 5 Este 9 Este 0 -- -- 100
2020-01-13 12:00:00 -0.7 0 Calma -- -- 0 -- -- 100
2020-01-13 11:00:00 -1.8 0 Calma -- -- 0 -- -- 100
2020-01-13 10:00:00 -3.1 0 Calma -- -- 0 -- -- 99
2020-01-13 09:00:00 -3.4 0 Calma -- -- 0 -- -- 99
2020-01-13 08:00:00 -3.8 0 Calma -- -- 0 -- -- 98
2020-01-13 07:00:00 -3.9 0 Calma -- -- 0 -- -- 100
2020-01-13 06:00:00 -3.8 0 Calma -- -- 0 -- -- 100
2020-01-13 05:00:00 -3.2 0 Calma -- -- 0 -- -- 99
2020-01-13 04:00:00 -2.5 0 Calma -- -- 0 -- -- 99
2020-01-13 03:00:00 -2 0 Calma -- -- 0 -- -- 100
2020-01-13 02:00:00 -1.6 0 Calma -- -- 0 -- -- 100
2020-01-13 01:00:00 -1.1 0 Calma -- -- 0 -- -- 100
2020-01-13 00:00:00 -0.6 0 Calma -- -- 0.2 -- -- 100
2020-01-12 23:00:00 -0.6 0 Calma 8 Este 0 -- -- 100
2020-01-12 22:00:00 -0.1 4 Este 8 Este 0 -- -- 99
2020-01-12 21:00:00 -0.1 5 Sudeste 10 Este 0 -- -- 99
2020-01-12 20:00:00 -0.1 8 Este 11 Este 0 -- -- 99
2020-01-12 19:00:00 0.1 6 Este 12 Este 0 -- -- 99
2020-01-12 18:00:00 0.4 8 Este 18 Este 0 -- -- 98
2020-01-12 17:00:00 1.3 10 Sudeste 16 Sudeste 0 -- -- 97
2020-01-12 16:00:00 2.6 9 Sudeste 16 Sudeste 0 -- -- 96
2020-01-12 15:00:00 2.8 5 Sudeste 9 Sudeste 0 -- -- 99
2020-01-12 14:00:00 1.7 0 Calma 5 Norte 0 -- -- 99
2020-01-12 13:00:00 0.8 0 Calma 4 Este 0 -- -- 99
2020-01-12 12:00:00 0.1 2 Este 6 Este 0 -- -- 99
2020-01-12 11:00:00 -0.9 0 Calma 4 Este 0 -- -- 99
2020-01-12 10:00:00 -1.6 0 Calma 3 Sudeste 0 -- -- 99
2020-01-12 09:00:00 -1.9 2 Este 4 Sudeste 0 -- -- 98
2020-01-12 08:00:00 -2 0 Calma 4 Este 0 -- -- 98
2020-01-12 07:00:00 -1.8 2 Este 4 Este 0 -- -- 98
2020-01-12 06:00:00 -1.4 0 Calma 3 Oeste 0 -- -- 98
2020-01-12 05:00:00 -1 0 Calma 2 Sudeste 0 -- -- 98
2020-01-12 04:00:00 -1.2 0 Calma 3 Este 0 -- -- 97
2020-01-12 03:00:00 -2.1 0 Calma 4 Nordeste 0 -- -- 96
2020-01-12 02:00:00 -1.6 0 Calma 3 Nordeste 0 -- -- 96
2020-01-12 01:00:00 -1.1 2 Nordeste 3 Nordeste 0 -- -- 95
2020-01-12 00:00:00 -0.5 2 Nordeste 5 Este 0 -- -- 95
2020-01-11 23:00:00 0.2 4 Este 8 Este 0 -- -- 94
2020-01-11 22:00:00 0.5 3 Nordeste 9 Nordeste 0 -- -- 91
2020-01-11 21:00:00 1.4 4 Nordeste 9 Nordeste 0 -- -- 87
2020-01-11 20:00:00 2.8 0 Calma 3 Nordeste 0 -- -- 82
2020-01-11 19:00:00 5.6 0 Calma 9 Oeste 0 -- -- 77
2020-01-11 18:00:00 7.8 5 Oeste 15 Sudoeste 0 -- -- 69
2020-01-11 17:00:00 10.1 8 Oeste 21 Oeste 0 -- -- 63
2020-01-11 16:00:00 10.5 13 Oeste 25 Oeste 0 -- -- 60
2020-01-11 15:00:00 10.3 15 Oeste 26 Oeste 0 -- -- 58
2020-01-11 14:00:00 9.7 13 Oeste 25 Oeste 0 -- -- 62
2020-01-11 13:00:00 8.4 11 Oeste 23 Oeste 0 -- -- 69
2020-01-11 12:00:00 6.5 13 Oeste 23 Oeste 0 -- -- 75
2020-01-11 11:00:00 4.1 9 Oeste 19 Oeste 0 -- -- 85
2020-01-11 10:00:00 1.8 5 Oeste 13 Oeste 0 -- -- 94
2020-01-11 09:00:00 -0.2 0 Calma 9 Oeste 0 -- -- 94
2020-01-11 08:00:00 0.2 6 Noroeste 11 Noroeste 0 -- -- 93
2020-01-11 07:00:00 0.9 8 Noroeste 18 Noroeste 0 -- -- 91
2020-01-11 06:00:00 1 12 Noroeste 18 Oeste 0 -- -- 93
2020-01-11 05:00:00 1.3 5 Oeste 13 Oeste 0 -- -- 91
2020-01-11 04:00:00 2.1 7 Oeste 17 Oeste 0 -- -- 90
2020-01-11 03:00:00 2.1 6 Oeste 13 Oeste 0 -- -- 91
2020-01-11 02:00:00 1.8 7 Oeste 14 Oeste 0 -- -- 92
2020-01-11 01:00:00 2.6 0 Calma 15 Oeste 0 -- -- 91
2020-01-11 00:00:00 3.4 7 Oeste 17 Noroeste 0 -- -- 92
2020-01-10 23:00:00 3.2 6 Oeste 13 Oeste 0 -- -- 92
2020-01-10 22:00:00 3.3 7 Oeste 12 Noroeste 0 -- -- 91
2020-01-10 21:00:00 4 9 Noroeste 18 Noroeste 0 -- -- 87
2020-01-10 20:00:00 5 6 Oeste 13 Noroeste 0 -- -- 84
2020-01-10 19:00:00 6.4 3 Oeste 19 Oeste 0 -- -- 78
2020-01-10 18:00:00 8.7 12 Noroeste 25 Oeste 0 -- -- 68
2020-01-10 17:00:00 11.4 18 Oeste 31 Oeste 0 -- -- 61
2020-01-10 16:00:00 12.2 19 Oeste 40 Oeste 0 -- -- 60
2020-01-10 15:00:00 11.7 26 Oeste 39 Oeste 0 -- -- 63
2020-01-10 14:00:00 11.7 26 Oeste 42 Oeste 0 -- -- 62
2020-01-10 13:00:00 10.1 27 Oeste 47 Oeste 0 -- -- 75
2020-01-10 12:00:00 9.7 20 Oeste 41 Noroeste 0 -- -- 73
2020-01-10 11:00:00 8 16 Oeste 37 Oeste 0 -- -- 79
2020-01-10 10:00:00 6.5 25 Noroeste 39 Oeste 0 -- -- 80
2020-01-10 09:00:00 5.2 18 Oeste 36 Noroeste 0 -- -- 86
2020-01-10 08:00:00 4.9 11 Noroeste 39 Noroeste 0 -- -- 87
2020-01-10 07:00:00 4.6 23 Oeste 42 Oeste 0 -- -- 92
2020-01-10 06:00:00 4.8 22 Oeste 38 Oeste 0 -- -- 97
2020-01-10 05:00:00 4.9 22 Oeste 35 Oeste 0 -- -- 100
2020-01-10 04:00:00 4.2 12 Oeste 27 Oeste 0 -- -- 100
2020-01-10 03:00:00 4.1 12 Oeste 28 Oeste 0 -- -- 100
2020-01-10 02:00:00 3.8 5 Oeste 16 Oeste 0 -- -- 100
2020-01-10 01:00:00 3.6 5 Oeste 18 Oeste 0 -- -- 100
2020-01-10 00:00:00 3.7 10 Oeste 17 Noroeste 0 -- -- 100
2020-01-09 23:00:00 3.6 3 Noroeste 6 Oeste 0 -- -- 100
2020-01-09 22:00:00 3.8 5 Oeste 9 Oeste 0.2 -- -- 100
2020-01-09 21:00:00 3.7 3 Sudoeste 8 Sudoeste 0 -- -- 100
2020-01-09 20:00:00 3.5 2 Oeste 6 Sudeste 0 -- -- 100
2020-01-09 19:00:00 3.7 3 Sudeste 15 Sudeste 0 -- -- 100
2020-01-09 18:00:00 4 9 Sudeste 19 Este 0 -- -- 100
2020-01-09 17:00:00 4 11 Este 24 Este 0 -- -- 100
2020-01-09 16:00:00 4.2 14 Este 24 Sudeste 0 -- -- 100
2020-01-09 15:00:00 4.8 13 Sudeste 22 Este 0 -- -- 100
2020-01-09 14:00:00 5.1 14 Este 22 Este 0 -- -- 100
2020-01-09 13:00:00 3.7 6 Sudeste 10 Este 0 -- -- 100
2020-01-09 12:00:00 1.6 0 Calma 6 Este 0 -- -- 100
2020-01-09 11:00:00 0 2 Sudeste 6 Noroeste 0 -- -- 100
2020-01-09 10:00:00 -0.9 0 Calma 4 Oeste 0 -- -- 100
2020-01-09 09:00:00 -0.9 2 Oeste 3 Noroeste 0 -- -- 100
2020-01-09 08:00:00 -0.8 0 Calma 2 Sudeste 0 -- -- 100
2020-01-09 07:00:00 -0.8 0 Calma 4 Este 0 -- -- 100
2020-01-09 06:00:00 -0.5 0 Calma 3 Sudeste 0 -- -- 100
2020-01-09 05:00:00 -0.6 0 Calma 4 Oeste 0 -- -- 100
2020-01-09 04:00:00 -0.7 0 Calma 2 Sudeste 0 -- -- 100
2020-01-09 03:00:00 -0.5 0 Calma 4 Este 0 -- -- 100
2020-01-09 02:00:00 -0.3 0 Calma 5 Este 0 -- -- 100
2020-01-09 01:00:00 -0.1 3 Este 6 Sudeste 0 -- -- 100
2020-01-09 00:00:00 0.6 3 Este 5 Nordeste 0 -- -- 100
2020-01-08 23:00:00 1.6 0 Calma 5 Nordeste 0.2 -- -- 100
2020-01-08 22:00:00 2.3 0 Calma 4 Oeste 0 -- -- 100
2020-01-08 21:00:00 2.7 0 Calma 3 Sudoeste 0 -- -- 100
2020-01-08 20:00:00 3 0 Calma 3 Sudeste 0 -- -- 100
2020-01-08 19:00:00 3.2 2 Este 12 Sudeste 0 -- -- 100
2020-01-08 18:00:00 3.6 8 Este 13 Este 0 -- -- 100
2020-01-08 17:00:00 3.9 9 Este 13 Sudeste 0 -- -- 100
2020-01-08 16:00:00 4 5 Este 11 Este 0 -- -- 100
2020-01-08 15:00:00 3.4 6 Este 13 Sudeste 0 -- -- 100
2020-01-08 14:00:00 2.7 6 Sudeste 14 Sudeste 0 -- -- 100
2020-01-08 13:00:00 2.5 5 Este 13 Este 0 -- -- 100
2020-01-08 12:00:00 1.9 6 Este 12 Sudeste 0 -- -- 100
2020-01-08 11:00:00 1.6 7 Este 11 Este 0 -- -- 100
2020-01-08 10:00:00 1 7 Este 14 Este 0 -- -- 100
2020-01-08 09:00:00 0.7 8 Este 12 Este 0 -- -- 100
2020-01-08 08:00:00 0.6 6 Nordeste 10 Nordeste 0 -- -- 100
2020-01-08 07:00:00 0.8 5 Nordeste 10 Este 0 -- -- 100
2020-01-08 06:00:00 0.9 0 Calma 9 Nordeste 0 -- -- 100
2020-01-08 05:00:00 1.1 5 Nordeste 8 Nordeste 0 -- -- 100
2020-01-08 04:00:00 1.4 0 Calma 6 Este 0 -- -- 100
2020-01-08 03:00:00 1.4 4 Este 6 Este 0 -- -- 100
2020-01-08 02:00:00 1.4 4 Este 6 Este 0 -- -- 100
2020-01-08 01:00:00 1.4 2 Nordeste 5 Norte 0 -- -- 100
2020-01-08 00:00:00 1.7 3 Norte 5 Noroeste 0 -- -- 100
2020-01-07 23:00:00 1.7 3 Sudeste 10 Este 0 -- -- 100
2020-01-07 22:00:00 1.9 6 Este 10 Sudeste 0 -- -- 100
2020-01-07 21:00:00 1.9 6 Este 10 Este 0 -- -- 100
2020-01-07 20:00:00 1.7 5 Este 9 Este 0 -- -- 100
2020-01-07 19:00:00 2 3 Este 7 Sudeste 0 -- -- 100
2020-01-07 18:00:00 1.9 2 Este 9 Nordeste 0 -- -- 100
2020-01-07 17:00:00 2 4 Este 8 Nordeste 0 -- -- 100
2020-01-07 16:00:00 2 0 Calma 4 Nordeste 0 -- -- 100
2020-01-07 15:00:00 1.8 3 Sur 6 Oeste 0 -- -- 100
2020-01-07 14:00:00 1.7 0 Calma 10 Oeste 0 -- -- 100
2020-01-07 13:00:00 1.5 4 Noroeste 10 Oeste 0 -- -- 100
2020-01-07 12:00:00 1.5 3 Oeste 6 Oeste 0 -- -- 100
2020-01-07 11:00:00 1.2 0 Calma 5 Oeste 0 -- -- 100
2020-01-07 10:00:00 1 0 Calma 6 Este 0 -- -- 100
2020-01-07 09:00:00 0.6 0 Calma 6 Oeste 0 -- -- 100
2020-01-07 08:00:00 0.7 2 Sudoeste 6 Oeste 0 -- -- 100
2020-01-07 07:00:00 0.8 0 Calma 5 Oeste 0 -- -- 100
2020-01-07 06:00:00 0.7 2 Sudoeste 4 Sudoeste 0 -- -- 100
2020-01-07 05:00:00 0.4 2 Sudoeste 3 Sudoeste 0 -- -- 100
2020-01-07 04:00:00 0.3 3 Este 7 Este 0 -- -- 100
2020-01-07 03:00:00 0.5 2 Nordeste 4 Nordeste 0 -- -- 100
2020-01-07 02:00:00 0.5 0 Calma 10 Noroeste 0 -- -- 100
2020-01-07 01:00:00 0.9 3 Oeste 15 Oeste 0 -- -- 100
2020-01-07 00:00:00 1.2 7 Oeste 20 Oeste 0 -- -- 100
2020-01-06 23:00:00 1.4 10 Oeste 17 Noroeste 0 -- -- 100
2020-01-06 22:00:00 1.7 6 Oeste 17 Oeste 0 -- -- 100
2020-01-06 21:00:00 1.8 8 Oeste 16 Oeste 0 -- -- 100
2020-01-06 20:00:00 2.1 5 Oeste 13 Oeste 0 -- -- 100
2020-01-06 19:00:00 2.3 8 Noroeste 14 Noroeste 0 -- -- 100
2020-01-06 18:00:00 2 5 Sudoeste 13 Sudoeste 0 -- -- 100
2020-01-06 17:00:00 2.5 10 Sudoeste 14 Sudoeste 0 -- -- 100
2020-01-06 16:00:00 3.3 10 Sudoeste 14 Sudoeste 0 -- -- 100
2020-01-06 15:00:00 3.5 6 Oeste 13 Oeste 0 -- -- 100
2020-01-06 14:00:00 3.5 5 Oeste 12 Oeste 0 -- -- 100
2020-01-06 13:00:00 3.2 8 Sudoeste 13 Sudoeste 0 -- -- 100
2020-01-06 12:00:00 2.9 4 Noroeste 9 Oeste 0 -- -- 100
2020-01-06 11:00:00 1.9 4 Oeste 8 Noroeste 0.2 -- -- 100
2020-01-06 10:00:00 1.5 0 Calma 4 Este 0 -- -- 100